Ochopee, Florida
Current Conditions -  °F | °C
As of 10:15 AM on Friday 31 Oct 2014 (Local Time) from KMKY Reporting Station
Few Clouds Few Clouds  
Wind Chill: 81°   Ceiling: Unl
Heat Index: 83°   Visibility: 10mi
Dew Point: 68°   Wind: 10mph
Humidity: 65%   Direction: 230°SW
Pressure: 29.88"   Gusts: NA
Location:  25.9°N, 81.3°W
Report Text: KMKY 311415Z 23009KT 10SM FEW033 FEW065 27/20 A2988 RMK AO1
Loading
Personal Weather Stations






























Interactive Weather Map
Tropical Storm Tracking
New forecast layout! Learn more

10-Day Weather Forecast

Advertisements
Track Severe Weather on mobile